Latest Weather Observations for Mount Lofty

IDS60801

Issued at 10:05 pm CDT Monday 20 October 2014 (issued every 30 minutes, with the page automatically refreshed every 10 minutes)

About weather observations | Map of weather stations | Latest weather observations for SA | Other Formats
Station Details ID: 023842 Name: MOUNT LOFTY Lat: -34.98 Lon: 138.71 Height: 685.0 m
Data from the previous 72 hours. | See also: Recent months at Mount Lofty
Date/Time
CDT
Temp
°C
App
Temp
°C
Dew
Point
Rel
Hum
%
Delta-T
°C
Wind Press
QNH
hPa
Press
MSL
hPa
Rain
since 9 am
mm
Dir
 
Spd
km/h
Gust
km/h
Spd
kts
Gust
kts
20/10:00pm 18.1 15.2 4.7 41 6.6 E 9 19 5 10 - - 0.0
20/09:30pm 17.8 14.8 6.0 46 6.0 ESE 11 20 6 11 - - 0.0
20/09:00pm 18.4 15.5 6.3 45 6.2 ESE 11 20 6 11 - - 0.0
20/08:30pm 18.6 15.2 6.1 44 6.4 ESE 13 30 7 16 - - 0.0
20/08:00pm 18.6 15.9 7.4 48 5.9 ESE 11 26 6 14 - - 0.0
20/07:30pm 18.8 15.8 7.9 49 5.8 E 13 20 7 11 - - 0.0
20/07:00pm 20.3 17.8 8.0 45 6.6 E 11 17 6 9 - - 0.0
20/06:30pm 22.1 19.2 6.3 36 8.3 E 11 19 6 10 - - 0.0
20/06:00pm 22.6 19.4 6.8 36 8.4 ESE 13 24 7 13 - - 0.0
20/05:30pm 23.1 20.3 6.8 35 8.7 E 11 19 6 10 - - 0.0
20/05:00pm 23.8 20.6 7.0 34 9.0 ESE 13 20 7 11 - - 0.0
20/04:30pm 23.7 21.1 7.8 36 8.7 ESE 11 19 6 10 - - 0.0
20/04:00pm 25.6 23.6 8.6 34 9.5 E 9 22 5 12 - - 0.0
20/03:30pm 25.4 22.9 8.0 33 9.6 ESE 11 19 6 10 - - 0.0
20/03:00pm 25.5 23.7 9.3 36 9.1 E 9 17 5 9 - - 0.0
20/02:30pm 24.7 22.8 9.0 37 8.8 E 9 17 5 9 - - 0.0
20/02:00pm 24.4 22.7 8.4 36 8.8 E 7 22 4 12 - - 0.0
20/01:30pm 24.4 22.7 8.4 36 8.8 E 7 13 4 7 - - 0.0
20/01:00pm 22.9 21.4 9.0 41 7.7 E 7 17 4 9 - - 0.0
20/12:30pm 22.1 20.5 10.3 47 6.7 E 9 15 5 8 - - 0.0
20/12:00pm 21.4 20.4 10.9 51 6.0 E 7 15 4 8 - - 0.0
20/11:30am 19.5 17.8 10.0 54 5.3 ESE 9 19 5 10 - - 0.0
20/11:00am 17.8 15.6 9.4 58 4.6 ESE 11 17 6 9 - - 0.0
20/10:30am 16.9 15.2 9.8 63 3.9 E 9 19 5 10 - - 0.0
20/10:00am 14.5 12.1 10.1 75 2.4 ESE 13 20 7 11 - - 0.0
20/09:30am 13.0 10.3 9.1 77 2.0 E 13 20 7 11 - - 0.0
20/09:00am 11.7 9.4 9.1 84 1.4 E 11 20 6 11 - - 0.0
20/08:30am 9.7 5.7 8.3 91 0.7 ESE 19 28 10 15 - - 0.0
20/08:00am 9.0 5.7 8.1 94 0.4 E 15 24 8 13 - - 0.0
20/07:30am 8.5 5.5 7.7 95 0.4 E 13 22 7 12 - - 0.0
20/07:00am 8.1 5.1 7.5 96 0.3 ESE 13 24 7 13 - - 0.0
20/06:30am 8.0 3.8 7.4 96 0.3 ESE 19 28 10 15 - - 0.0
20/06:00am 8.1 4.7 7.5 96 0.3 ESE 15 22 8 12 - - 0.0
20/05:30am 8.3 4.5 7.7 96 0.3 E 17 30 9 16 - - 0.0
20/05:00am 8.3 4.9 7.7 96 0.3 E 15 24 8 13 - - 0.0
20/04:30am 8.2 4.4 7.6 96 0.3 E 17 28 9 15 - - 0.0
20/04:00am 8.4 4.3 7.8 96 0.3 E 19 32 10 17 - - 0.0
20/03:30am 8.5 4.4 7.9 96 0.3 E 19 28 10 15 - - 0.0
20/03:00am 8.9 4.7 8.3 96 0.3 E 20 35 11 19 - - 0.0
20/02:30am 9.2 5.1 8.6 96 0.3 E 20 30 11 16 - - 0.0
20/02:00am 9.5 5.5 8.9 96 0.3 E 20 30 11 16 - - 0.0
20/01:30am 9.9 6.0 9.3 96 0.3 E 20 32 11 17 - - 0.0
20/01:00am 10.1 6.4 9.5 96 0.3 E 19 28 10 15 - - 0.0
20/12:30am 10.2 6.3 9.6 96 0.3 ESE 20 30 11 16 - - 0.0
20/12:00am 10.0 6.1 9.4 96 0.3 E 20 30 11 16 - - 0.0
 
Date/Time
CDT
Temp
°C
App
Temp
°C
Dew
Point
Rel
Hum
%
Delta-T
°C
Wind Press
QNH
hPa
Press
MSL
hPa
Rain
since 9 am
mm
Dir
 
Spd
km/h
Gust
km/h
Spd
kts
Gust
kts
19/11:30pm 9.9 6.1 9.1 95 0.4 ESE 19 32 10 17 - - 0.0
19/11:00pm 9.8 5.9 8.7 93 0.6 E 19 26 10 14 - - 0.0
19/10:30pm 10.0 6.0 8.1 88 1.0 E 19 30 10 16 - - 0.0
19/10:00pm 10.7 6.4 7.2 79 1.7 ESE 19 30 10 16 - - 0.0
19/09:30pm 10.8 6.8 6.6 75 2.1 E 17 32 9 17 - - 0.0
19/09:00pm 11.2 6.8 6.5 73 2.3 ESE 19 30 10 16 - - 0.0
19/08:30pm 10.6 7.0 8.5 87 1.1 ESE 17 28 9 15 - - 0.0
19/08:00pm 10.7 7.4 9.5 92 0.6 E 17 26 9 14 - - 0.0
19/07:30pm 11.4 8.2 9.8 90 0.8 E 17 26 9 14 - - 0.0
19/07:00pm 12.7 9.9 10.1 84 1.4 ESE 15 20 8 11 - - 0.0
19/06:30pm 14.3 12.1 10.7 79 2.0 ESE 13 19 7 10 - - 0.0
19/06:00pm 17.3 15.4 11.8 70 3.1 ESE 13 20 7 11 - - 0.0
19/05:30pm 21.6 20.9 11.9 54 5.6 ESE 7 19 4 10 - - 0.0
19/05:00pm 24.8 22.1 0.3 20 11.7 SSW 4 9 2 5 - - 0.0
19/04:30pm 25.3 22.2 0.0 19 12.1 W 6 13 3 7 - - 0.0
19/04:00pm 25.3 21.9 -0.7 18 12.3 W 7 15 4 8 - - 0.0
19/03:30pm 25.6 22.6 1.7 21 11.8 W 7 11 4 6 - - 0.0
19/03:00pm 24.4 21.5 1.3 22 11.2 W 6 13 3 7 - - 0.0
19/02:30pm 24.8 22.0 2.9 24 11.0 W 7 13 4 7 - - 0.0
19/02:00pm 24.3 20.3 0.6 21 11.4 W 11 20 6 11 - - 0.0
19/01:30pm 24.8 19.9 -0.4 19 11.9 WNW 15 26 8 14 - - 0.0
19/01:00pm 24.2 19.2 -0.9 19 11.7 WNW 15 28 8 15 - - 0.0
19/12:30pm 23.8 17.8 -1.2 19 11.5 WNW 20 33 11 18 - - 0.0
19/12:00pm 23.2 17.8 -1.0 20 11.2 WNW 17 30 9 16 - - 0.0
19/11:30am 22.7 17.0 -0.7 21 10.8 WNW 19 32 10 17 - - 0.0
19/11:00am 22.0 16.3 -0.7 22 10.4 WNW 19 33 10 18 - - 0.0
19/10:30am 21.2 15.5 -0.7 23 10.0 WNW 19 32 10 17 - - 0.0
19/10:00am 21.0 14.5 -2.1 21 10.2 WNW 22 39 12 21 - - 0.0
19/09:30am 20.7 14.7 -1.8 22 10.0 NW 20 35 11 19 - - 0.0
19/09:00am 20.6 14.1 -2.5 21 10.1 NW 22 35 12 19 - - 0.0
19/08:30am 19.8 13.3 -2.5 22 9.7 NW 22 35 12 19 - - 0.0
19/08:00am 19.7 13.5 -3.2 21 9.8 NW 20 39 11 21 - - 0.0
19/07:30am 19.8 13.8 -3.1 21 9.9 NW 19 35 10 19 - - 0.0
19/07:00am 19.8 13.7 -3.8 20 10.0 NW 19 33 10 18 - - 0.0
19/06:30am 19.8 13.5 -3.8 20 10.0 NW 20 32 11 17 - - 0.0
19/06:00am 20.1 13.5 -3.5 20 10.1 NW 22 39 12 21 - - 0.0
19/05:30am 20.1 13.5 -3.5 20 10.1 NW 22 39 12 21 - - 0.0
19/05:00am 20.0 13.9 -3.6 20 10.1 NW 19 32 10 17 - - 0.0
19/04:30am 20.0 13.8 -3.0 21 9.9 NW 20 35 11 19 - - 0.0
19/04:00am 20.4 14.4 -3.3 20 10.2 NNW 19 37 10 20 - - 0.0
19/03:30am 20.7 15.1 -3.0 20 10.3 NNW 17 28 9 15 - - 0.0
19/03:00am 21.0 16.0 -4.2 18 10.7 NNW 13 26 7 14 - - 0.0
19/02:30am 21.5 16.5 -4.5 17 11.1 NNW 13 22 7 12 - - 0.0
19/02:00am 22.3 17.5 -5.6 15 11.7 N 11 19 6 10 - - 0.0
19/01:30am 22.8 18.1 -5.2 15 11.9 N 11 20 6 11 - - 0.0
19/01:00am 22.7 18.7 -5.2 15 11.8 N 7 13 4 7 - - 0.0
19/12:30am 22.8 18.8 -6.1 14 12.1 N 7 11 4 6 - - 0.0
19/12:00am 22.8 18.7 -7.0 13 12.2 NNE 7 15 4 8 - - 0.0
 
Date/Time
CDT
Temp
°C
App
Temp
°C
Dew
Point
Rel
Hum
%
Delta-T
°C
Wind Press
QNH
hPa
Press
MSL
hPa
Rain
since 9 am
mm
Dir
 
Spd
km/h
Gust
km/h
Spd
kts
Gust
kts
18/11:30pm 23.1 19.0 -6.8 13 12.3 N 7 11 4 6 - - 0.0
18/11:00pm 22.5 18.5 -5.4 15 11.8 N 7 13 4 7 - - 0.0
18/10:30pm 22.6 18.5 -6.2 14 12.0 NNW 7 11 4 6 - - 0.0
18/10:00pm 22.2 18.4 -5.6 15 11.6 N 6 9 3 5 - - 0.0
18/09:30pm 21.9 18.2 -5.0 16 11.4 N 6 11 3 6 - - 0.0
18/09:00pm 21.9 18.0 -5.0 16 11.4 NNW 7 11 4 6 - - 0.0
18/08:30pm 22.2 18.3 -4.8 16 11.5 NW 7 11 4 6 - - 0.0
18/08:00pm 22.3 18.4 -4.7 16 11.5 NW 7 15 4 8 - - 0.0
18/07:30pm 22.3 18.4 -4.7 16 11.5 WNW 7 9 4 5 - - 0.0
18/07:00pm 22.7 19.1 -2.1 19 11.2 WNW 7 15 4 8 - - 0.0
18/06:30pm 24.1 19.7 -2.4 17 12.0 WNW 11 20 6 11 - - 0.0
18/06:00pm 25.1 20.7 -2.5 16 12.6 NW 11 17 6 9 - - 0.0
18/05:30pm 24.5 19.7 -2.9 16 12.3 WNW 13 24 7 13 - - 0.0
18/05:00pm 25.0 20.6 -2.5 16 12.5 WNW 11 19 6 10 - - 0.0
18/04:30pm 24.6 19.3 -3.7 15 12.6 WNW 15 28 8 15 - - 0.0
18/04:00pm 26.4 22.2 -0.6 17 12.9 WNW 11 20 6 11 - - 0.0
18/03:30pm 25.2 20.7 0.0 19 12.0 WNW 13 28 7 15 - - 0.0
18/03:00pm 25.7 20.6 -2.0 16 12.8 WNW 15 33 8 18 - - 0.0
18/02:30pm 25.4 21.1 -1.4 17 12.5 W 11 22 6 12 - - 0.0
18/02:00pm 25.5 21.8 0.2 19 12.1 W 9 22 5 12 - - 0.0
18/01:30pm 24.6 20.2 0.2 20 11.6 WNW 13 24 7 13 - - 0.0
18/01:00pm 23.8 18.8 -1.2 19 11.5 NW 15 30 8 16 - - 0.0
18/12:30pm 22.4 18.0 0.3 23 10.4 NW 13 20 7 11 - - 0.0
18/12:00pm 22.6 18.2 0.4 23 10.5 WNW 13 26 7 14 - - 0.0
18/11:30am 23.2 17.9 -0.3 21 11.0 WNW 17 33 9 18 - - 0.0
18/11:00am 22.0 16.9 0.5 24 10.1 NW 17 28 9 15 - - 0.0
18/10:30am 21.2 15.6 -0.1 24 9.8 NW 19 32 10 17 - - 0.0
18/10:00am 20.4 15.2 0.3 26 9.3 NW 17 32 9 17 - - 0.0
18/09:30am 19.4 14.6 -0.1 27 8.9 NW 15 32 8 17 - - 0.0
18/09:00am 18.7 13.1 -0.2 28 8.5 NNW 19 32 10 17 - - 0.0
18/08:30am 18.1 12.4 -0.7 28 8.4 NNW 19 32 10 17 - - 0.0
18/08:00am 17.9 12.6 -0.8 28 8.3 NW 17 35 9 19 - - 0.0
18/07:30am 17.7 12.3 -1.0 28 8.2 NW 17 30 9 16 - - 0.0
18/07:00am 18.2 12.8 -1.6 26 8.7 NNW 17 30 9 16 - - 0.0
18/06:30am 18.2 13.5 -2.1 25 8.8 N 13 28 7 15 - - 0.0
18/06:00am 18.3 13.6 -2.0 25 8.8 N 13 26 7 14 - - 0.0
18/05:30am 17.8 12.7 -1.9 26 8.5 N 15 24 8 13 - - 0.0
18/05:00am 17.9 13.2 -1.9 26 8.6 N 13 24 7 13 - - 0.0
18/04:30am 17.8 13.2 -1.4 27 8.4 N 13 24 7 13 - - 0.0
18/04:00am 17.9 13.3 -1.3 27 8.4 NNE 13 26 7 14 - - 0.0
18/03:30am 17.6 13.8 -1.1 28 8.2 NNE 9 20 5 11 - - 0.0
18/03:00am 17.6 13.4 -1.1 28 8.2 NNE 11 28 6 15 - - 0.0
18/02:30am 17.7 13.1 -1.0 28 8.2 NNE 13 26 7 14 - - 0.0
18/02:00am 17.7 13.1 -1.0 28 8.2 NE 13 24 7 13 - - 0.0
18/01:30am 17.1 13.3 -1.1 29 8.0 NE 9 20 5 11 - - 0.0
18/01:00am 17.3 13.5 -0.9 29 8.0 NE 9 19 5 10 - - 0.0
18/12:30am 16.6 12.8 -0.6 31 7.6 ENE 9 19 5 10 - - 0.0
18/12:00am 16.3 12.9 -0.4 32 7.4 E 7 19 4 10 - - 0.0
 
Date/Time
CDT
Temp
°C
App
Temp
°C
Dew
Point
Rel
Hum
%
Delta-T
°C
Wind Press
QNH
hPa
Press
MSL
hPa
Rain
since 9 am
mm
Dir
 
Spd
km/h
Gust
km/h
Spd
kts
Gust
kts
17/11:30pm 16.3 13.0 0.0 33 7.2 ENE 7 17 4 9 - - 0.0
17/11:00pm 16.1 13.1 0.7 35 6.9 E 6 13 3 7 - - 0.0
17/10:30pm 15.7 12.6 0.3 35 6.9 E 6 11 3 6 - - 0.0

Other Formats:

Comma delimited format used in spreadsheet applications
http://www.bom.gov.au/fwo/IDS60801/IDS60801.95678.axf

JavaScript Object Notation format (JSON) in row-major order
http://www.bom.gov.au/fwo/IDS60801/IDS60801.95678.json